Time;durP1;ratioP1;P1;durP2;ratioP2;P2;SDS_P1;SDS_P2;PMS_P1;PMS_P2;Temp;Humidity;BMP_temperature;BMP_pressure;BME280_temperature;BME280_humidity;BME280_pressure;Samples;Min_cycle;Max_cycle;Signal;HPM_P1;HPM_P2
2021/12/16 00:01:45;;;;;;;42.13;15.45;;;9.30;99.90;;;;;;5115791;28;20402;-78
2021/12/16 00:08:51;;;;;;;37.38;15.82;;;9.50;99.90;;;;;;5114398;28;20048;-78
2021/12/16 00:11:37;;;;;;;38.83;16.40;;;9.50;99.90;;;;;;5099498;28;20066;-78
2021/12/16 00:20:15;;;;;;;39.63;15.80;;;9.70;99.90;;;;;;5135365;27;20508;-78
2021/12/16 00:33:31;;;;;;;33.58;13.90;;;9.90;99.90;;;;;;5135133;27;20054;-78
2021/12/16 00:35:57;;;;;;;35.97;13.98;;;10.00;99.90;;;;;;5117609;27;20043;-78
2021/12/16 00:38:23;;;;;;;32.20;15.10;;;10.10;99.90;;;;;;5135047;27;20387;-78
2021/12/16 00:40:49;;;;;;;40.10;16.58;;;10.20;99.90;;;;;;5100907;27;20058;-78
2021/12/16 00:55:56;;;;;;;38.03;15.38;;;10.10;99.90;;;;;;5134700;27;20054;-78
2021/12/16 00:58:33;;;;;;;41.72;15.70;;;10.00;99.90;;;;;;5134492;27;20053;-78
2021/12/16 01:01:19;;;;;;;36.95;15.60;;;10.00;99.90;;;;;;5134339;27;20082;-78
2021/12/16 01:34:01;;;;;;;27.02;11.65;;;10.40;99.90;;;;;;5154570;27;20510;-78
2021/12/16 01:36:45;;;;;;;34.50;12.38;;;10.50;99.90;;;;;;5154407;27;20042;-78
2021/12/16 01:50:05;;;;;;;33.85;12.10;;;10.40;99.90;;;;;;5125120;27;20047;-77
2021/12/16 01:52:50;;;;;;;38.75;13.73;;;10.30;99.90;;;;;;5154464;27;20042;-78
2021/12/16 01:55:55;;;;;;;34.95;12.23;;;10.30;99.90;;;;;;5139718;27;20047;-77
2021/12/16 01:58:24;;;;;;;33.20;11.85;;;10.40;99.90;;;;;;5154668;27;20405;-78
2021/12/16 02:01:27;;;;;;;39.33;12.05;;;10.40;99.90;;;;;;5154293;27;20039;-77
2021/12/16 02:04:00;;;;;;;35.72;11.85;;;10.50;99.90;;;;;;5153769;27;20034;-78
2021/12/16 02:09:29;;;;;;;42.92;12.05;;;10.30;99.90;;;;;;5154479;27;20051;-77
2021/12/16 02:12:08;;;;;;;32.20;11.30;;;10.20;99.90;;;;;;5153807;27;20508;-77
2021/12/16 02:31:51;;;;;;;35.72;11.98;;;10.20;99.90;;;;;;5094629;28;20055;-77
2021/12/16 02:36:46;;;;;;;40.97;12.75;;;10.20;99.90;;;;;;5135906;27;20081;-78
2021/12/16 02:39:28;;;;;;;36.38;11.50;;;10.30;99.90;;;;;;5140485;27;20110;-78
2021/12/16 02:42:04;;;;;;;35.25;11.02;;;10.20;99.90;;;;;;5157890;27;20035;-78
2021/12/16 02:49:51;;;;;;;35.05;10.65;;;10.40;99.90;;;;;;5157832;27;20058;-78
2021/12/16 02:52:20;;;;;;;29.55;12.35;;;10.60;99.90;;;;;;5158011;27;20042;-78
2021/12/16 02:54:47;;;;;;;33.92;12.35;;;10.70;99.90;;;;;;5157649;27;20043;-78
2021/12/16 02:57:14;;;;;;;33.85;14.73;;;10.60;99.90;;;;;;5157589;27;20043;-77
2021/12/16 02:59:41;;;;;;;36.45;14.35;;;10.60;99.90;;;;;;5140499;27;20043;-78
2021/12/16 03:02:13;;;;;;;37.33;14.45;;;10.50;99.90;;;;;;5157524;27;20050;-78
2021/12/16 03:04:43;;;;;;;38.95;14.98;;;10.40;99.90;;;;;;5140042;27;20125;-78
2021/12/16 03:07:12;;;;;;;35.97;13.55;;;10.40;99.90;;;;;;5140126;27;20046;-78
2021/12/16 03:15:00;;;;;;;36.83;15.18;;;10.40;99.90;;;;;;5157580;27;20055;-78
2021/12/16 03:17:36;;;;;;;34.40;12.98;;;10.40;99.90;;;;;;5140179;27;20074;-78
2021/12/16 03:20:16;;;;;;;41.08;14.13;;;10.50;99.90;;;;;;5157329;27;20434;-78
2021/12/16 03:22:59;;;;;;;42.15;15.65;;;10.40;99.90;;;;;;5139806;27;20082;-78
2021/12/16 03:25:42;;;;;;;39.97;16.13;;;10.20;99.90;;;;;;5157086;27;20179;-78
2021/12/16 03:36:25;;;;;;;35.30;14.02;;;10.00;99.90;;;;;;5157620;27;20069;-78
2021/12/16 03:39:09;;;;;;;31.33;12.60;;;10.00;99.90;;;;;;5156987;27;20058;-78
2021/12/16 03:41:36;;;;;;;29.95;13.32;;;10.00;99.90;;;;;;5156751;27;20485;-78
2021/12/16 03:44:08;;;;;;;39.88;13.40;;;10.10;99.90;;;;;;5155268;27;20042;-78
2021/12/16 03:46:38;;;;;;;41.22;12.30;;;10.10;99.90;;;;;;5155862;27;20409;-78
2021/12/16 03:49:31;;;;;;;39.10;14.38;;;10.00;99.90;;;;;;5156750;27;20093;-78
2021/12/16 03:52:08;;;;;;;42.15;15.30;;;10.00;99.90;;;;;;5152494;27;20098;-78
2021/12/16 03:54:40;;;;;;;35.05;14.10;;;9.80;99.90;;;;;;5156673;27;20089;-78
2021/12/16 03:57:12;;;;;;;36.25;14.25;;;9.70;99.90;;;;;;5156557;27;20043;-78
2021/12/16 03:59:39;;;;;;;51.13;15.30;;;9.60;99.90;;;;;;5139261;27;20046;-78
2021/12/16 04:02:09;;;;;;;28.70;12.43;;;9.50;99.90;;;;;;5156492;27;20078;-78
2021/12/16 04:04:35;;;;;;;47.67;14.80;;;9.60;99.90;;;;;;5155805;27;20043;-78
2021/12/16 04:07:02;;;;;;;46.70;17.02;;;9.70;99.90;;;;;;5156875;27;20042;-78
2021/12/16 04:09:30;;;;;;;42.97;15.60;;;9.60;99.90;;;;;;5156123;27;20401;-78
2021/12/16 04:12:03;;;;;;;52.75;16.98;;;9.50;99.90;;;;;;5138978;27;20046;-78
2021/12/16 04:14:30;;;;;;;52.10;17.13;;;9.40;99.90;;;;;;5122451;27;20041;-78
2021/12/16 04:16:57;;;;;;;53.33;17.13;;;9.20;99.90;;;;;;5155516;27;20047;-78
2021/12/16 04:19:26;;;;;;;51.38;17.10;;;9.10;99.90;;;;;;5156096;27;20082;-78
2021/12/16 04:21:59;;;;;;;42.50;16.75;;;9.10;99.90;;;;;;5155908;27;20049;-78
2021/12/16 04:24:25;;;;;;;46.08;15.73;;;9.20;99.90;;;;;;5156058;27;20042;-78
2021/12/16 04:26:53;;;;;;;48.60;16.15;;;9.10;99.90;;;;;;5138749;27;20089;-78
2021/12/16 04:29:19;;;;;;;48.47;15.50;;;9.10;99.90;;;;;;5155989;27;20046;-78
2021/12/16 04:31:45;;;;;;;47.40;16.40;;;9.20;99.90;;;;;;5155597;27;20053;-78
2021/12/16 04:34:11;;;;;;;42.63;14.95;;;9.20;99.90;;;;;;5155762;27;20050;-78
2021/12/16 04:36:38;;;;;;;41.50;14.23;;;9.20;99.90;;;;;;5155726;27;20131;-78
2021/12/16 04:39:10;;;;;;;32.95;13.90;;;9.30;99.90;;;;;;5155492;27;20046;-78
2021/12/16 04:41:37;;;;;;;32.53;12.68;;;9.40;99.90;;;;;;5155726;27;20058;-78
2021/12/16 04:44:08;;;;;;;28.65;11.60;;;9.50;99.90;;;;;;5138007;27;20038;-78
2021/12/16 04:46:34;;;;;;;49.10;15.43;;;9.60;99.90;;;;;;5137558;27;20051;-78
2021/12/16 04:49:01;;;;;;;26.25;10.77;;;9.50;99.90;;;;;;5155188;27;20183;-78
2021/12/16 04:51:30;;;;;;;26.45;11.43;;;9.50;99.90;;;;;;5155293;27;20051;-78
2021/12/16 04:53:56;;;;;;;46.85;14.85;;;9.60;99.90;;;;;;5155475;27;20050;-78
2021/12/16 04:56:22;;;;;;;43.97;13.98;;;9.70;99.90;;;;;;5155116;27;20039;-78
2021/12/16 04:58:51;;;;;;;41.38;14.30;;;9.70;99.90;;;;;;5138066;27;20043;-78
2021/12/16 05:01:18;;;;;;;42.60;14.65;;;9.70;99.90;;;;;;5137941;27;20047;-78
2021/12/16 05:03:44;;;;;;;48.00;14.52;;;9.60;99.90;;;;;;5155000;27;20121;-78
2021/12/16 05:06:10;;;;;;;32.33;12.18;;;9.60;99.90;;;;;;5137920;27;20141;-78
2021/12/16 05:08:37;;;;;;;46.42;15.07;;;9.50;99.90;;;;;;5155182;27;20102;-78
2021/12/16 05:11:05;;;;;;;28.83;11.82;;;9.50;99.90;;;;;;5154852;27;20039;-78
2021/12/16 05:13:31;;;;;;;24.00;10.13;;;9.50;99.90;;;;;;5154790;27;20047;-78
2021/12/16 05:16:02;;;;;;;42.00;14.88;;;9.50;99.90;;;;;;5154625;27;20043;-78
2021/12/16 05:18:34;;;;;;;38.70;12.05;;;9.50;99.90;;;;;;5138195;27;20051;-78
2021/12/16 05:21:15;;;;;;;35.80;12.45;;;9.60;99.90;;;;;;5154978;27;20046;-78
2021/12/16 05:26:26;;;;;;;27.63;10.85;;;9.50;99.90;;;;;;5140804;27;20478;-78
2021/12/16 05:28:55;;;;;;;41.20;14.02;;;9.50;99.90;;;;;;5154917;27;20049;-78
2021/12/16 05:31:23;;;;;;;43.88;13.00;;;9.50;99.90;;;;;;5154736;27;20054;-78
2021/12/16 05:33:50;;;;;;;37.15;13.15;;;9.40;99.90;;;;;;5137564;27;20114;-78
2021/12/16 05:36:16;;;;;;;40.17;14.98;;;9.40;99.90;;;;;;5154298;27;20541;-78
2021/12/16 05:38:43;;;;;;;39.85;14.45;;;9.40;99.90;;;;;;5137437;27;20046;-78
2021/12/16 05:41:11;;;;;;;34.78;14.10;;;9.20;99.90;;;;;;5154453;27;20401;-78
2021/12/16 05:43:37;;;;;;;31.17;11.77;;;9.20;99.90;;;;;;5136866;27;20035;-78
2021/12/16 05:46:04;;;;;;;46.60;16.38;;;9.20;99.90;;;;;;5153964;27;20055;-78
2021/12/16 05:48:33;;;;;;;42.47;15.18;;;9.40;99.90;;;;;;5137208;27;20042;-78
2021/12/16 05:51:04;;;;;;;46.05;16.13;;;9.40;99.90;;;;;;5137207;27;20039;-78
2021/12/16 05:53:31;;;;;;;44.13;16.35;;;9.40;99.90;;;;;;5137172;27;20050;-78
2021/12/16 05:55:57;;;;;;;43.15;15.57;;;9.40;99.90;;;;;;5154457;27;20504;-78
2021/12/16 05:58:23;;;;;;;26.45;12.95;;;9.30;99.90;;;;;;5154285;27;20035;-78
2021/12/16 06:00:55;;;;;;;26.48;13.45;;;9.40;99.90;;;;;;5154409;27;20504;-78
2021/12/16 06:03:23;;;;;;;29.63;11.70;;;9.40;99.90;;;;;;5153689;27;20508;-78
2021/12/16 06:05:51;;;;;;;26.55;13.00;;;9.50;99.90;;;;;;5154063;27;20481;-78
2021/12/16 06:08:17;;;;;;;36.70;15.65;;;9.60;99.90;;;;;;5153350;27;20499;-78
2021/12/16 06:11:13;;;;;;;39.50;14.75;;;9.60;99.90;;;;;;5119824;27;20047;-78
2021/12/16 06:13:42;;;;;;;47.47;15.38;;;9.60;99.90;;;;;;5153853;27;20047;-78
2021/12/16 06:29:36;;;;;;;52.33;16.77;;;9.40;99.90;;;;;;5133039;27;20055;-78
2021/12/16 06:32:03;;;;;;;21.27;11.18;;;9.20;99.90;;;;;;5133211;28;20045;-78
2021/12/16 06:34:29;;;;;;;23.92;10.88;;;9.30;99.90;;;;;;5150272;27;20035;-77
2021/12/16 06:36:55;;;;;;;25.73;11.63;;;9.40;99.90;;;;;;5133024;28;20091;-78
2021/12/16 06:39:21;;;;;;;37.03;12.50;;;9.40;99.90;;;;;;5133330;28;20050;-77
2021/12/16 06:41:47;;;;;;;28.10;10.90;;;9.40;99.90;;;;;;5133304;28;20047;-78
2021/12/16 06:44:28;;;;;;;31.65;13.35;;;9.40;99.90;;;;;;5115886;28;20035;-78
2021/12/16 06:46:59;;;;;;;25.88;11.20;;;9.50;99.90;;;;;;5100359;28;20051;-77
2021/12/16 06:49:26;;;;;;;25.52;10.98;;;9.50;99.90;;;;;;5133210;27;20043;-77
2021/12/16 06:51:59;;;;;;;19.83;9.82;;;9.40;99.90;;;;;;5132896;28;20050;-77
2021/12/16 06:54:31;;;;;;;18.40;9.25;;;9.40;99.90;;;;;;5133116;28;20055;-78
2021/12/16 06:59:36;;;;;;;19.17;9.70;;;9.40;99.90;;;;;;5132869;27;20054;-77
2021/12/16 07:02:12;;;;;;;38.15;12.52;;;9.40;99.90;;;;;;5132900;28;20051;-77
2021/12/16 07:04:38;;;;;;;;;;;9.40;99.90;;;;;;5100882;28;20031;-77
2021/12/16 07:07:06;;;;;;;17.73;9.60;;;9.30;99.90;;;;;;5133140;27;19946;-78
2021/12/16 07:09:32;;;;;;;27.20;11.50;;;9.10;99.90;;;;;;5132761;27;20154;-74
2021/12/16 07:12:00;;;;;;;22.27;11.38;;;9.10;99.90;;;;;;5132746;28;20529;-76
2021/12/16 07:14:37;;;;;;;21.08;9.48;;;9.10;99.90;;;;;;5132517;28;20130;-76
2021/12/16 07:17:12;;;;;;;19.55;8.82;;;9.10;99.90;;;;;;5132743;28;20051;-76
2021/12/16 07:19:39;;;;;;;16.27;8.97;;;9.10;99.90;;;;;;5135158;27;20039;-76
2021/12/16 07:22:06;;;;;;;16.90;8.63;;;9.10;99.90;;;;;;5102377;27;20047;-76
2021/12/16 07:24:33;;;;;;;13.05;7.40;;;9.10;99.90;;;;;;5119172;27;20549;-75
2021/12/16 07:26:58;;;;;;;34.30;12.95;;;9.10;99.90;;;;;;5136040;27;20057;-75
2021/12/16 07:29:25;;;;;;;46.60;13.55;;;9.10;99.90;;;;;;5136422;27;20047;-72
2021/12/16 07:31:51;;;;;;;14.60;7.47;;;9.10;99.90;;;;;;5140242;27;20073;-73
2021/12/16 07:34:18;;;;;;;13.02;7.35;;;9.00;99.90;;;;;;5140049;27;20170;-74
2021/12/16 07:36:45;;;;;;;14.05;6.80;;;9.00;99.90;;;;;;5137580;27;20506;-72
2021/12/16 07:39:16;;;;;;;11.80;6.68;;;9.00;99.90;;;;;;5135836;27;20054;-73
2021/12/16 07:41:46;;;;;;;15.57;6.80;;;9.00;99.90;;;;;;5136231;27;20051;-73
2021/12/16 07:44:13;;;;;;;18.90;8.63;;;9.00;99.90;;;;;;5135788;27;20489;-73
2021/12/16 07:46:48;;;;;;;16.38;8.20;;;9.10;99.90;;;;;;5118226;27;20059;-73
2021/12/16 07:49:18;;;;;;;15.98;7.85;;;9.10;99.90;;;;;;5170563;27;20111;-73
2021/12/16 07:51:45;;;;;;;14.55;7.18;;;9.20;99.90;;;;;;5135856;27;20051;-74
2021/12/16 07:54:13;;;;;;;27.20;9.75;;;9.20;99.90;;;;;;5135863;27;20211;-73
2021/12/16 07:56:40;;;;;;;22.10;9.25;;;9.20;99.90;;;;;;5135693;27;20116;-73
2021/12/16 07:59:07;;;;;;;17.13;8.20;;;9.20;99.90;;;;;;5135761;27;20043;-73
2021/12/16 08:01:34;;;;;;;18.77;8.52;;;9.30;99.90;;;;;;5135913;27;20057;-73
2021/12/16 08:04:00;;;;;;;28.65;8.52;;;9.30;99.90;;;;;;5135874;27;20047;-74
2021/12/16 08:06:30;;;;;;;29.83;11.32;;;9.30;99.90;;;;;;5135277;27;20054;-72
2021/12/16 08:09:00;;;;;;;21.08;9.88;;;9.40;99.90;;;;;;5135672;27;20047;-73
2021/12/16 08:11:29;;;;;;;17.92;8.10;;;9.40;99.90;;;;;;5135631;27;20043;-73
2021/12/16 08:13:55;;;;;;;27.67;10.63;;;9.40;99.90;;;;;;5135346;27;20039;-73
2021/12/16 08:16:22;;;;;;;16.42;8.32;;;9.20;99.90;;;;;;5169930;27;20054;-73
2021/12/16 08:18:52;;;;;;;18.55;9.27;;;9.20;99.90;;;;;;5169849;27;20043;-73
2021/12/16 08:21:20;;;;;;;14.73;8.13;;;9.20;99.90;;;;;;5136399;27;20108;-73
2021/12/16 08:23:45;;;;;;;23.45;10.73;;;9.30;99.90;;;;;;5136106;27;20555;-74
2021/12/16 08:26:15;;;;;;;16.40;7.97;;;9.30;99.90;;;;;;5136389;27;20035;-75
2021/12/16 08:28:42;;;;;;;40.10;13.20;;;9.30;99.90;;;;;;5141896;27;20147;-74
2021/12/16 08:31:10;;;;;;;45.90;14.95;;;9.40;99.90;;;;;;5135936;27;20106;-74
2021/12/16 08:33:37;;;;;;;23.25;10.15;;;9.40;99.90;;;;;;5134857;27;20058;-74
2021/12/16 08:36:04;;;;;;;27.02;11.90;;;9.50;99.90;;;;;;5134988;27;20043;-74
2021/12/16 08:38:31;;;;;;;28.15;12.48;;;9.60;99.90;;;;;;5135117;27;20057;-74
2021/12/16 08:41:05;;;;;;;28.85;11.98;;;9.70;99.90;;;;;;5117635;27;20500;-74
2021/12/16 08:43:31;;;;;;;39.95;15.82;;;9.70;99.90;;;;;;5135276;27;20521;-73
2021/12/16 08:45:57;;;;;;;45.67;17.00;;;9.70;99.90;;;;;;5168567;27;20151;-74
2021/12/16 08:48:26;;;;;;;40.38;15.48;;;9.80;99.90;;;;;;5134639;27;20058;-74
2021/12/16 08:50:52;;;;;;;63.72;19.58;;;9.80;99.90;;;;;;5137847;27;20124;-74
2021/12/16 08:53:22;;;;;;;33.30;14.25;;;9.90;99.90;;;;;;5128900;27;20054;-73
2021/12/16 08:55:49;;;;;;;29.40;14.55;;;9.90;99.90;;;;;;5133082;27;20130;-73
2021/12/16 08:58:15;;;;;;;33.78;15.05;;;10.00;99.90;;;;;;5133882;27;20486;-73
2021/12/16 09:00:49;;;;;;;34.70;15.25;;;10.00;99.90;;;;;;5117545;27;20058;-73
2021/12/16 09:03:15;;;;;;;32.95;15.05;;;10.10;99.90;;;;;;5134485;27;20072;-74
2021/12/16 09:05:41;;;;;;;55.97;21.40;;;10.20;99.90;;;;;;5117065;27;20046;-73
2021/12/16 09:08:07;;;;;;;60.67;22.75;;;10.20;99.90;;;;;;5134669;27;20388;-73
2021/12/16 09:10:36;;;;;;;75.25;24.77;;;10.20;99.90;;;;;;5135277;27;20047;-73
2021/12/16 09:13:06;;;;;;;65.70;24.73;;;10.20;99.90;;;;;;5134269;27;20095;-74
2021/12/16 09:15:57;;;;;;;75.50;25.60;;;10.00;99.90;;;;;;5134105;27;20051;-73
2021/12/16 09:18:27;;;;;;;61.85;23.48;;;9.90;99.90;;;;;;5127719;27;20498;-74
2021/12/16 09:20:54;;;;;;;89.68;28.00;;;9.90;99.90;;;;;;5134231;27;20039;-73
2021/12/16 09:23:20;;;;;;;76.38;26.00;;;10.00;99.90;;;;;;5134173;27;20529;-73
2021/12/16 09:25:48;;;;;;;77.55;24.58;;;10.00;99.90;;;;;;5134952;27;20125;-73
2021/12/16 09:28:15;;;;;;;94.00;29.73;;;9.90;99.90;;;;;;5116986;27;20062;-73
2021/12/16 09:30:41;;;;;;;96.13;29.08;;;9.90;99.90;;;;;;5116931;27;20094;-73
2021/12/16 09:33:13;;;;;;;139.70;35.03;;;9.80;99.90;;;;;;5135006;27;20078;-73
2021/12/16 09:35:39;;;;;;;82.50;26.70;;;9.80;99.90;;;;;;5133862;27;20043;-73
2021/12/16 09:38:09;;;;;;;147.52;33.88;;;9.80;99.90;;;;;;5133620;27;20049;-72
2021/12/16 09:40:39;;;;;;;82.22;28.08;;;9.90;99.90;;;;;;5134038;27;20503;-72
2021/12/16 09:43:05;;;;;;;63.88;24.15;;;9.90;99.90;;;;;;5134030;27;20432;-71
2021/12/16 09:45:31;;;;;;;69.93;27.73;;;10.00;99.90;;;;;;5133409;27;20059;-71
2021/12/16 09:47:57;;;;;;;184.60;36.05;;;10.10;99.90;;;;;;5132993;27;20055;-72
2021/12/16 09:50:28;;;;;;;218.38;38.20;;;10.20;99.90;;;;;;5133729;27;20517;-72
2021/12/16 09:52:54;;;;;;;265.65;41.33;;;10.00;99.90;;;;;;5116194;27;20099;-72
2021/12/16 09:55:21;;;;;;;228.20;39.97;;;9.90;99.90;;;;;;5133344;27;20446;-72
2021/12/16 09:57:47;;;;;;;156.65;35.10;;;9.80;99.90;;;;;;5133707;27;20122;-74
2021/12/16 10:00:16;;;;;;;154.05;35.05;;;9.80;99.90;;;;;;5116241;27;20047;-71
2021/12/16 10:02:42;;;;;;;140.35;33.08;;;9.90;99.90;;;;;;5133486;27;20044;-74
2021/12/16 10:05:09;;;;;;;338.65;44.00;;;10.00;99.90;;;;;;5133078;27;20096;-73
2021/12/16 10:07:34;;;;;;;256.42;42.25;;;10.10;99.90;;;;;;5116209;28;20055;-73
2021/12/16 10:10:09;;;;;;;298.55;43.63;;;9.90;99.90;;;;;;5133471;27;20047;-73
2021/12/16 10:12:39;;;;;;;289.45;43.25;;;9.90;99.90;;;;;;5133397;28;20058;-72
2021/12/16 10:17:22;;;;;;;176.95;34.22;;;9.90;99.90;;;;;;5133568;28;20047;-75
2021/12/16 10:17:54;;;;;;;250.40;38.90;;;9.90;99.90;;;;;;5132491;27;20058;-76
2021/12/16 10:20:26;;;;;;;80.25;27.55;;;9.80;99.90;;;;;;5133461;28;20053;-75
2021/12/16 10:23:04;;;;;;;260.98;38.58;;;9.50;99.90;;;;;;5133434;28;20050;-78
2021/12/16 10:25:35;;;;;;;151.15;32.42;;;9.60;99.90;;;;;;5133197;27;20043;-75
2021/12/16 10:28:03;;;;;;;248.50;36.22;;;9.70;99.90;;;;;;5133426;28;20054;-77
2021/12/16 10:31:02;;;;;;;251.40;38.03;;;9.70;99.90;;;;;;5167722;27;20044;-78
2021/12/16 10:33:43;;;;;;;86.43;28.92;;;9.60;99.90;;;;;;5127937;27;20062;-80
2021/12/16 10:36:09;;;;;;;288.55;37.40;;;9.60;99.90;;;;;;5115934;28;20058;-77
2021/12/16 10:38:48;;;;;;;86.50;22.85;;;9.80;99.90;;;;;;5168044;27;20059;-87
2021/12/16 10:41:20;;;;;;;89.25;23.60;;;9.70;99.90;;;;;;5116720;28;20474;-87
2021/12/16 10:43:51;;;;;;;36.35;17.48;;;9.40;99.90;;;;;;5116282;28;20561;-86
2021/12/16 10:46:28;;;;;;;44.55;20.58;;;9.30;99.90;;;;;;5115491;28;20146;-79
2021/12/16 10:49:18;;;;;;;75.15;22.63;;;9.60;99.90;;;;;;5132858;27;20122;-84
2021/12/16 10:51:47;;;;;;;192.57;29.40;;;9.70;99.90;;;;;;5122965;27;20059;-86
2021/12/16 10:54:28;;;;;;;57.90;22.02;;;9.80;99.90;;;;;;5107582;28;20047;-75
2021/12/16 10:57:09;;;;;;;99.15;25.30;;;10.00;99.90;;;;;;5116273;28;20089;-76
2021/12/16 10:59:48;;;;;;;48.35;20.40;;;10.20;99.90;;;;;;5123170;27;20389;-76
2021/12/16 11:02:16;;;;;;;45.28;21.77;;;10.30;99.90;;;;;;5116368;27;20078;-76
2021/12/16 11:04:50;;;;;;;42.50;20.58;;;10.30;99.90;;;;;;5115891;27;20118;-84
2021/12/16 11:07:36;;;;;;;120.38;24.33;;;10.50;99.90;;;;;;5170474;27;20402;-80
2021/12/16 11:10:18;;;;;;;64.03;21.02;;;10.50;99.90;;;;;;5136447;27;20039;-77
2021/12/16 11:12:54;;;;;;;97.45;22.83;;;10.60;99.90;;;;;;5136684;27;20058;-79
2021/12/16 11:15:20;;;;;;;142.75;25.85;;;10.70;99.90;;;;;;5136688;27;20065;-79
2021/12/16 11:17:54;;;;;;;57.13;19.90;;;10.70;99.90;;;;;;5170711;27;20130;-78
2021/12/16 11:20:31;;;;;;;54.00;19.50;;;10.70;99.90;;;;;;5171116;27;20043;-78
2021/12/16 11:23:21;;;;;;;162.40;27.13;;;10.80;99.90;;;;;;5119509;27;20184;-88
2021/12/16 11:25:54;;;;;;;166.30;27.77;;;10.70;99.90;;;;;;5136754;27;20501;-77
2021/12/16 11:28:24;;;;;;;214.85;32.75;;;10.40;99.90;;;;;;5120162;27;20132;-77
2021/12/16 11:31:01;;;;;;;186.48;32.42;;;10.40;99.90;;;;;;5137585;27;20096;-76
2021/12/16 11:33:32;;;;;;;71.68;24.88;;;10.40;99.90;;;;;;5171166;27;20159;-73
2021/12/16 11:36:04;;;;;;;253.93;37.35;;;10.30;99.90;;;;;;5136104;27;20051;-74
2021/12/16 11:38:49;;;;;;;110.72;28.63;;;10.30;99.90;;;;;;5171011;27;20058;-74
2021/12/16 11:41:39;;;;;;;91.72;28.20;;;10.30;99.90;;;;;;5108116;28;20044;-77
2021/12/16 11:44:22;;;;;;;47.55;23.17;;;10.40;99.90;;;;;;5116860;27;20122;-74
2021/12/16 11:46:57;;;;;;;107.25;29.60;;;10.50;99.90;;;;;;5131470;27;20052;-74
2021/12/16 11:49:28;;;;;;;160.05;32.17;;;10.60;99.90;;;;;;5114938;28;20130;-75
2021/12/16 11:52:03;;;;;;;201.43;33.28;;;10.70;99.90;;;;;;5132569;27;20039;-74
2021/12/16 11:54:31;;;;;;;172.65;35.00;;;10.70;99.90;;;;;;5097941;28;20100;-74
2021/12/16 11:57:18;;;;;;;81.68;28.80;;;10.70;99.90;;;;;;5115096;28;20138;-76
2021/12/16 11:59:49;;;;;;;;;;;10.70;99.90;;;;;;5131322;27;20087;-75
2021/12/16 12:02:40;;;;;;;217.50;36.83;;;10.80;99.90;;;;;;5134242;27;19923;-74
2021/12/16 12:05:12;;;;;;;212.05;39.15;;;10.80;99.90;;;;;;5134585;27;20107;-74
2021/12/16 12:07:48;;;;;;;117.20;32.05;;;10.60;99.90;;;;;;5159062;27;20057;-75
2021/12/16 12:10:15;;;;;;;133.75;31.48;;;10.40;99.90;;;;;;5135279;27;20442;-74
2021/12/16 12:12:49;;;;;;;217.75;35.50;;;10.50;99.90;;;;;;5135376;27;20059;-74
2021/12/16 12:15:17;;;;;;;244.45;38.30;;;10.50;99.90;;;;;;5135191;27;20058;-75
2021/12/16 12:17:54;;;;;;;182.18;33.45;;;10.60;99.90;;;;;;5133541;27;20129;-75
2021/12/16 12:20:29;;;;;;;235.00;38.25;;;10.60;99.90;;;;;;5135219;27;20134;-75
2021/12/16 12:22:55;;;;;;;144.07;33.28;;;10.60;99.90;;;;;;5118154;27;20086;-75
2021/12/16 12:25:21;;;;;;;139.85;31.95;;;10.50;99.90;;;;;;5134787;27;20095;-74
2021/12/16 12:27:47;;;;;;;52.15;23.02;;;10.70;99.90;;;;;;5118027;27;20051;-80
2021/12/16 12:30:14;;;;;;;46.45;19.88;;;10.50;99.90;;;;;;5118013;27;20091;-84
2021/12/16 12:32:43;;;;;;;50.22;20.88;;;10.60;99.90;;;;;;5134971;27;20043;-81
2021/12/16 12:35:29;;;;;;;129.43;27.73;;;10.70;99.90;;;;;;5116870;27;20118;-76
2021/12/16 12:37:57;;;;;;;145.82;29.83;;;10.70;99.90;;;;;;5134853;27;20468;-76
2021/12/16 12:40:36;;;;;;;88.10;25.13;;;10.80;99.90;;;;;;5134775;27;20083;-78
2021/12/16 12:43:04;;;;;;;148.73;31.80;;;10.50;99.90;;;;;;5134326;27;20051;-77
2021/12/16 12:45:34;;;;;;;69.63;23.55;;;10.50;99.90;;;;;;5117360;27;20096;-74
2021/12/16 12:48:04;;;;;;;121.38;29.42;;;10.40;99.90;;;;;;5133742;27;20051;-75
2021/12/16 12:50:40;;;;;;;174.25;34.88;;;10.50;99.90;;;;;;5134608;27;20047;-75
2021/12/16 12:53:14;;;;;;;152.90;33.75;;;10.50;99.90;;;;;;5125097;27;20058;-77
2021/12/16 12:55:41;;;;;;;138.75;33.90;;;10.50;99.90;;;;;;5131485;27;20058;-78
2021/12/16 12:58:13;;;;;;;117.50;31.33;;;10.40;99.90;;;;;;5131521;27;20051;-76
2021/12/16 13:00:56;;;;;;;129.85;30.95;;;10.60;99.90;;;;;;5112583;28;20107;-77
2021/12/16 13:03:41;;;;;;;118.38;29.73;;;10.70;99.90;;;;;;5096835;28;20096;-76
2021/12/16 13:06:17;;;;;;;70.32;24.10;;;10.70;99.90;;;;;;5113731;28;20051;-76
2021/12/16 13:08:46;;;;;;;131.27;31.00;;;10.60;99.90;;;;;;5130898;27;20044;-77
2021/12/16 13:11:20;;;;;;;112.35;28.67;;;10.70;99.90;;;;;;5113797;28;20079;-76
2021/12/16 13:14:07;;;;;;;86.40;25.52;;;10.70;99.90;;;;;;5113850;28;20063;-76
2021/12/16 13:17:05;;;;;;;110.97;26.98;;;10.70;99.90;;;;;;5130518;27;20044;-76
2021/12/16 13:28:17;;;;;;;91.75;24.60;;;10.60;99.90;;;;;;5114062;28;20051;-76
2021/12/16 13:31:00;;;;;;;128.73;26.92;;;10.60;99.90;;;;;;5130451;27;20047;-73
2021/12/16 13:33:53;;;;;;;137.27;27.85;;;10.50;99.90;;;;;;5113456;28;20126;-76
2021/12/16 13:36:38;;;;;;;147.93;28.35;;;10.50;99.90;;;;;;5113631;28;20051;-76
2021/12/16 13:39:09;;;;;;;161.13;28.13;;;10.60;99.90;;;;;;5113271;28;20048;-75
2021/12/16 13:41:36;;;;;;;121.10;26.10;;;10.50;99.90;;;;;;5113389;28;20047;-75
2021/12/16 13:44:11;;;;;;;207.98;29.90;;;10.50;99.90;;;;;;5124620;27;20054;-76
2021/12/16 13:47:05;;;;;;;95.57;23.60;;;10.60;99.90;;;;;;5112411;28;20055;-76
2021/12/16 14:03:51;;;;;;;118.55;24.77;;;10.80;99.90;;;;;;5112867;28;20047;-75
2021/12/16 14:06:37;;;;;;;132.63;26.17;;;10.60;99.90;;;;;;5112919;28;20058;-76
2021/12/16 14:09:24;;;;;;;152.60;27.30;;;10.60;99.90;;;;;;5112675;28;20059;-77
2021/12/16 14:17:26;;;;;;;76.70;20.00;;;10.40;99.90;;;;;;5112022;28;20047;-76
2021/12/16 14:23:05;;;;;;;92.82;19.52;;;10.50;99.90;;;;;;5112693;28;20048;-76
2021/12/16 14:42:07;;;;;;;139.50;25.95;;;10.60;99.90;;;;;;5116728;28;20091;-76
2021/12/16 14:48:05;;;;;;;140.38;25.45;;;10.70;99.90;;;;;;5115455;28;20055;-75
2021/12/16 14:50:56;;;;;;;131.02;24.48;;;10.70;99.90;;;;;;5116479;28;20130;-75
2021/12/16 14:53:30;;;;;;;161.23;26.25;;;10.70;99.90;;;;;;5116256;28;20122;-76
2021/12/16 14:56:01;;;;;;;136.95;25.65;;;10.70;99.90;;;;;;5116319;28;20044;-75
2021/12/16 14:58:27;;;;;;;76.53;20.92;;;10.70;99.90;;;;;;5116135;28;20105;-87
2021/12/16 15:01:19;;;;;;;128.20;24.10;;;10.70;99.90;;;;;;5099693;28;20388;-76
2021/12/16 15:03:47;;;;;;;124.22;24.05;;;10.70;99.90;;;;;;5116080;28;20043;-76
2021/12/16 15:06:36;;;;;;;71.95;19.25;;;10.50;99.90;;;;;;5116888;28;20399;-75
2021/12/16 15:09:17;;;;;;;134.60;24.58;;;10.60;99.90;;;;;;5116433;28;20048;-76
2021/12/16 15:11:58;;;;;;;148.57;26.73;;;10.60;99.90;;;;;;5115738;28;20058;-77
2021/12/16 15:17:06;;;;;;;193.10;29.35;;;10.40;99.90;;;;;;5116493;28;20055;-77
2021/12/16 15:45:07;;;;;;;149.93;26.20;;;10.50;99.90;;;;;;5115069;28;20075;-80
2021/12/16 15:47:45;;;;;;;107.90;23.10;;;10.60;99.90;;;;;;5114076;28;20574;-80
2021/12/16 15:50:16;;;;;;;201.63;28.88;;;10.60;99.90;;;;;;5115349;28;20059;-79
2021/12/16 15:52:47;;;;;;;125.72;25.17;;;10.70;99.90;;;;;;5098436;28;20079;-79
2021/12/16 15:55:28;;;;;;;103.68;23.27;;;10.70;99.90;;;;;;5115300;28;20130;-81
2021/12/16 15:58:08;;;;;;;81.55;20.63;;;10.70;99.90;;;;;;5131729;27;20563;-81
2021/12/16 16:00:38;;;;;;;81.20;19.38;;;10.70;99.90;;;;;;5132441;27;20048;-81
2021/12/16 16:03:05;;;;;;;82.15;19.73;;;10.50;99.90;;;;;;5097830;28;20055;-81
2021/12/16 16:05:33;;;;;;;93.10;20.75;;;10.50;99.90;;;;;;5114814;28;20055;-79
2021/12/16 16:08:02;;;;;;;69.90;18.38;;;10.50;99.90;;;;;;5097799;28;20055;-80
2021/12/16 16:10:27;;;;;;;104.93;20.50;;;10.50;99.90;;;;;;5169047;27;20055;-80
2021/12/16 16:12:53;;;;;;;79.80;18.50;;;10.50;99.90;;;;;;5118036;27;20050;-79
2021/12/16 16:15:22;;;;;;;103.95;20.65;;;10.50;99.90;;;;;;5118144;27;20051;-79
2021/12/16 16:18:11;;;;;;;97.60;20.27;;;10.50;99.90;;;;;;5117626;27;20047;-78
2021/12/16 16:20:38;;;;;;;111.30;22.33;;;10.50;99.90;;;;;;5134835;27;20043;-78
2021/12/16 16:23:07;;;;;;;70.65;19.60;;;10.40;99.90;;;;;;5118057;27;20767;-81
2021/12/16 16:25:33;;;;;;;129.48;22.73;;;10.50;99.90;;;;;;5117266;27;20562;-79
2021/12/16 16:28:02;;;;;;;147.45;24.05;;;10.60;99.90;;;;;;5135355;27;20126;-78
2021/12/16 16:30:28;;;;;;;49.45;17.23;;;10.70;99.90;;;;;;5118357;27;20047;-77